sensor_id;sensor_type;location;lat;lon;timestamp;P1;durP1;ratioP1;P2;durP2;ratioP2
76995;SDS011;65929;49.062;10.338;2023-04-12T00:00:50;6.05;;;2.30;;
76995;SDS011;65929;49.062;10.338;2023-04-12T00:01:52;6.75;;;2.72;;
76995;SDS011;65929;49.062;10.338;2023-04-12T00:02:53;7.97;;;2.03;;
76995;SDS011;65929;49.062;10.338;2023-04-12T00:03:53;5.63;;;1.90;;
76995;SDS011;65929;49.062;10.338;2023-04-12T00:04:56;4.38;;;1.52;;
76995;SDS011;65929;49.062;10.338;2023-04-12T00:05:57;3.10;;;1.73;;
76995;SDS011;65929;49.062;10.338;2023-04-12T00:06:58;5.78;;;1.95;;
76995;SDS011;65929;49.062;10.338;2023-04-12T00:08:00;4.70;;;1.40;;
76995;SDS011;65929;49.062;10.338;2023-04-12T00:09:05;7.38;;;2.28;;
76995;SDS011;65929;49.062;10.338;2023-04-12T00:10:08;2.90;;;1.20;;
76995;SDS011;65929;49.062;10.338;2023-04-12T00:11:09;4.18;;;1.77;;
76995;SDS011;65929;49.062;10.338;2023-04-12T00:12:10;3.03;;;1.70;;
76995;SDS011;65929;49.062;10.338;2023-04-12T00:13:11;3.25;;;1.50;;
76995;SDS011;65929;49.062;10.338;2023-04-12T00:14:12;2.00;;;1.10;;
76995;SDS011;65929;49.062;10.338;2023-04-12T00:15:13;4.80;;;2.20;;
76995;SDS011;65929;49.062;10.338;2023-04-12T00:16:14;3.65;;;1.40;;
76995;SDS011;65929;49.062;10.338;2023-04-12T00:17:15;4.35;;;1.45;;
76995;SDS011;65929;49.062;10.338;2023-04-12T00:18:18;2.30;;;1.30;;
76995;SDS011;65929;49.062;10.338;2023-04-12T00:19:18;4.90;;;1.40;;
76995;SDS011;65929;49.062;10.338;2023-04-12T00:20:21;2.40;;;1.02;;
76995;SDS011;65929;49.062;10.338;2023-04-12T00:21:23;3.72;;;1.30;;
76995;SDS011;65929;49.062;10.338;2023-04-12T00:22:27;3.28;;;1.50;;
76995;SDS011;65929;49.062;10.338;2023-04-12T00:23:29;3.00;;;1.30;;
76995;SDS011;65929;49.062;10.338;2023-04-12T00:24:30;3.45;;;1.23;;
76995;SDS011;65929;49.062;10.338;2023-04-12T00:25:31;2.85;;;1.45;;
76995;SDS011;65929;49.062;10.338;2023-04-12T00:26:32;2.70;;;1.33;;
76995;SDS011;65929;49.062;10.338;2023-04-12T00:27:33;3.28;;;1.15;;
76995;SDS011;65929;49.062;10.338;2023-04-12T00:28:34;2.90;;;1.35;;
76995;SDS011;65929;49.062;10.338;2023-04-12T00:29:35;2.67;;;1.33;;
76995;SDS011;65929;49.062;10.338;2023-04-12T00:31:40;2.50;;;1.45;;
76995;SDS011;65929;49.062;10.338;2023-04-12T00:32:41;3.03;;;1.73;;
76995;SDS011;65929;49.062;10.338;2023-04-12T00:33:42;4.82;;;1.77;;
76995;SDS011;65929;49.062;10.338;2023-04-12T00:34:43;4.15;;;1.75;;
76995;SDS011;65929;49.062;10.338;2023-04-12T00:35:46;8.75;;;2.45;;
76995;SDS011;65929;49.062;10.338;2023-04-12T00:36:48;4.60;;;1.83;;
76995;SDS011;65929;49.062;10.338;2023-04-12T00:37:49;6.55;;;2.42;;
76995;SDS011;65929;49.062;10.338;2023-04-12T00:38:50;5.55;;;2.97;;
76995;SDS011;65929;49.062;10.338;2023-04-12T00:39:51;5.40;;;2.30;;
76995;SDS011;65929;49.062;10.338;2023-04-12T00:40:52;4.65;;;2.30;;
76995;SDS011;65929;49.062;10.338;2023-04-12T00:41:53;6.25;;;2.13;;
76995;SDS011;65929;49.062;10.338;2023-04-12T00:42:56;3.80;;;2.30;;
76995;SDS011;65929;49.062;10.338;2023-04-12T00:43:57;6.68;;;2.40;;
76995;SDS011;65929;49.062;10.338;2023-04-12T00:44:57;5.95;;;2.28;;
76995;SDS011;65929;49.062;10.338;2023-04-12T00:45:58;3.90;;;2.20;;
76995;SDS011;65929;49.062;10.338;2023-04-12T00:47:00;5.20;;;2.50;;
76995;SDS011;65929;49.062;10.338;2023-04-12T00:48:04;4.22;;;2.17;;
76995;SDS011;65929;49.062;10.338;2023-04-12T00:49:05;6.43;;;1.77;;
76995;SDS011;65929;49.062;10.338;2023-04-12T00:50:07;5.82;;;2.17;;
76995;SDS011;65929;49.062;10.338;2023-04-12T00:51:11;3.92;;;2.10;;
76995;SDS011;65929;49.062;10.338;2023-04-12T00:52:12;5.05;;;2.15;;
76995;SDS011;65929;49.062;10.338;2023-04-12T00:53:14;4.70;;;2.00;;
76995;SDS011;65929;49.062;10.338;2023-04-12T00:54:17;3.42;;;1.60;;
76995;SDS011;65929;49.062;10.338;2023-04-12T00:55:19;4.57;;;2.08;;
76995;SDS011;65929;49.062;10.338;2023-04-12T00:56:20;4.05;;;1.80;;
76995;SDS011;65929;49.062;10.338;2023-04-12T00:57:22;4.90;;;1.75;;
76995;SDS011;65929;49.062;10.338;2023-04-12T00:58:23;2.53;;;1.63;;
76995;SDS011;65929;49.062;10.338;2023-04-12T00:59:24;3.20;;;1.70;;
76995;SDS011;65929;49.062;10.338;2023-04-12T01:00:26;5.32;;;2.08;;
76995;SDS011;65929;49.062;10.338;2023-04-12T01:01:27;3.92;;;1.75;;
76995;SDS011;65929;49.062;10.338;2023-04-12T01:02:28;5.78;;;2.03;;
76995;SDS011;65929;49.062;10.338;2023-04-12T01:03:29;4.90;;;1.80;;
76995;SDS011;65929;49.062;10.338;2023-04-12T01:04:31;4.90;;;1.88;;
76995;SDS011;65929;49.062;10.338;2023-04-12T01:05:34;5.25;;;1.55;;
76995;SDS011;65929;49.062;10.338;2023-04-12T01:06:48;1.92;;;1.48;;
76995;SDS011;65929;49.062;10.338;2023-04-12T01:08:04;7.15;;;2.00;;
76995;SDS011;65929;49.062;10.338;2023-04-12T01:10:23;3.92;;;1.60;;
76995;SDS011;65929;49.062;10.338;2023-04-12T01:11:34;4.20;;;1.70;;
76995;SDS011;65929;49.062;10.338;2023-04-12T01:12:43;4.90;;;1.58;;
76995;SDS011;65929;49.062;10.338;2023-04-12T01:14:02;3.63;;;1.50;;
76995;SDS011;65929;49.062;10.338;2023-04-12T01:15:07;3.25;;;1.60;;
76995;SDS011;65929;49.062;10.338;2023-04-12T01:16:12;3.85;;;1.77;;
76995;SDS011;65929;49.062;10.338;2023-04-12T01:17:21;3.13;;;1.40;;
76995;SDS011;65929;49.062;10.338;2023-04-12T01:18:30;2.83;;;2.00;;
76995;SDS011;65929;49.062;10.338;2023-04-12T01:19:47;3.20;;;1.70;;
76995;SDS011;65929;49.062;10.338;2023-04-12T01:20:59;3.33;;;1.40;;
76995;SDS011;65929;49.062;10.338;2023-04-12T01:22:11;2.40;;;1.70;;
76995;SDS011;65929;49.062;10.338;2023-04-12T01:23:26;2.08;;;1.40;;
76995;SDS011;65929;49.062;10.338;2023-04-12T01:24:45;4.70;;;1.50;;
76995;SDS011;65929;49.062;10.338;2023-04-12T01:26:08;3.70;;;1.48;;
76995;SDS011;65929;49.062;10.338;2023-04-12T01:27:21;3.60;;;1.55;;
76995;SDS011;65929;49.062;10.338;2023-04-12T01:28:33;2.92;;;1.85;;
76995;SDS011;65929;49.062;10.338;2023-04-12T01:29:37;5.07;;;1.95;;
76995;SDS011;65929;49.062;10.338;2023-04-12T01:30:39;2.50;;;1.60;;
76995;SDS011;65929;49.062;10.338;2023-04-12T01:31:44;2.03;;;1.50;;
76995;SDS011;65929;49.062;10.338;2023-04-12T01:32:50;3.83;;;1.80;;
76995;SDS011;65929;49.062;10.338;2023-04-12T01:33:52;3.15;;;1.27;;
76995;SDS011;65929;49.062;10.338;2023-04-12T01:34:54;3.42;;;1.80;;
76995;SDS011;65929;49.062;10.338;2023-04-12T01:35:57;4.68;;;1.65;;
76995;SDS011;65929;49.062;10.338;2023-04-12T01:37:00;5.18;;;2.20;;
76995;SDS011;65929;49.062;10.338;2023-04-12T01:38:02;3.70;;;1.80;;
76995;SDS011;65929;49.062;10.338;2023-04-12T01:39:03;2.42;;;1.58;;
76995;SDS011;65929;49.062;10.338;2023-04-12T01:40:06;2.80;;;1.52;;
76995;SDS011;65929;49.062;10.338;2023-04-12T01:41:10;4.78;;;1.60;;
76995;SDS011;65929;49.062;10.338;2023-04-12T01:42:17;3.60;;;1.70;;
76995;SDS011;65929;49.062;10.338;2023-04-12T01:43:19;4.72;;;1.40;;
76995;SDS011;65929;49.062;10.338;2023-04-12T01:44:20;4.80;;;1.70;;
76995;SDS011;65929;49.062;10.338;2023-04-12T01:45:21;2.42;;;1.60;;
76995;SDS011;65929;49.062;10.338;2023-04-12T01:46:22;4.07;;;1.58;;
76995;SDS011;65929;49.062;10.338;2023-04-12T01:47:23;4.25;;;2.25;;
76995;SDS011;65929;49.062;10.338;2023-04-12T01:48:24;5.93;;;2.33;;
76995;SDS011;65929;49.062;10.338;2023-04-12T01:49:26;3.70;;;1.83;;
76995;SDS011;65929;49.062;10.338;2023-04-12T01:50:35;4.53;;;1.88;;
76995;SDS011;65929;49.062;10.338;2023-04-12T01:51:43;3.92;;;1.73;;
76995;SDS011;65929;49.062;10.338;2023-04-12T01:52:51;4.60;;;1.60;;
76995;SDS011;65929;49.062;10.338;2023-04-12T01:54:02;1.63;;;1.45;;
76995;SDS011;65929;49.062;10.338;2023-04-12T01:55:10;2.60;;;1.50;;
76995;SDS011;65929;49.062;10.338;2023-04-12T01:56:13;6.22;;;1.85;;
76995;SDS011;65929;49.062;10.338;2023-04-12T01:57:17;2.47;;;1.25;;
76995;SDS011;65929;49.062;10.338;2023-04-12T01:58:21;4.05;;;1.50;;
76995;SDS011;65929;49.062;10.338;2023-04-12T01:59:24;4.40;;;1.65;;
76995;SDS011;65929;49.062;10.338;2023-04-12T02:00:27;3.45;;;1.80;;
76995;SDS011;65929;49.062;10.338;2023-04-12T02:01:30;2.63;;;1.45;;
76995;SDS011;65929;49.062;10.338;2023-04-12T02:02:31;4.35;;;2.03;;
76995;SDS011;65929;49.062;10.338;2023-04-12T02:03:35;3.55;;;1.60;;
76995;SDS011;65929;49.062;10.338;2023-04-12T02:04:36;3.65;;;1.85;;
76995;SDS011;65929;49.062;10.338;2023-04-12T02:05:38;4.70;;;1.80;;
76995;SDS011;65929;49.062;10.338;2023-04-12T02:06:39;4.03;;;1.48;;
76995;SDS011;65929;49.062;10.338;2023-04-12T02:07:41;3.80;;;1.88;;
76995;SDS011;65929;49.062;10.338;2023-04-12T02:08:42;3.20;;;1.63;;
76995;SDS011;65929;49.062;10.338;2023-04-12T02:09:43;1.92;;;1.60;;
76995;SDS011;65929;49.062;10.338;2023-04-12T02:10:44;4.68;;;1.83;;
76995;SDS011;65929;49.062;10.338;2023-04-12T02:11:46;4.00;;;1.80;;
76995;SDS011;65929;49.062;10.338;2023-04-12T02:12:50;4.15;;;2.03;;
76995;SDS011;65929;49.062;10.338;2023-04-12T02:13:52;3.55;;;2.00;;
76995;SDS011;65929;49.062;10.338;2023-04-12T02:14:53;3.72;;;1.80;;
76995;SDS011;65929;49.062;10.338;2023-04-12T02:15:54;2.75;;;1.60;;
76995;SDS011;65929;49.062;10.338;2023-04-12T02:16:56;3.50;;;1.73;;
76995;SDS011;65929;49.062;10.338;2023-04-12T02:17:57;2.17;;;1.55;;
76995;SDS011;65929;49.062;10.338;2023-04-12T02:18:58;2.55;;;1.85;;
76995;SDS011;65929;49.062;10.338;2023-04-12T02:19:59;5.20;;;1.77;;
76995;SDS011;65929;49.062;10.338;2023-04-12T02:21:00;6.57;;;1.95;;
76995;SDS011;65929;49.062;10.338;2023-04-12T02:22:01;2.50;;;1.75;;
76995;SDS011;65929;49.062;10.338;2023-04-12T02:23:03;4.35;;;1.80;;
76995;SDS011;65929;49.062;10.338;2023-04-12T02:24:04;4.60;;;2.22;;
76995;SDS011;65929;49.062;10.338;2023-04-12T02:25:05;5.05;;;2.17;;
76995;SDS011;65929;49.062;10.338;2023-04-12T02:26:07;3.95;;;1.63;;
76995;SDS011;65929;49.062;10.338;2023-04-12T02:27:08;4.70;;;1.92;;
76995;SDS011;65929;49.062;10.338;2023-04-12T02:28:09;5.38;;;2.58;;
76995;SDS011;65929;49.062;10.338;2023-04-12T02:29:11;2.67;;;2.00;;
76995;SDS011;65929;49.062;10.338;2023-04-12T02:30:12;4.72;;;1.88;;
76995;SDS011;65929;49.062;10.338;2023-04-12T02:31:13;3.60;;;2.00;;
76995;SDS011;65929;49.062;10.338;2023-04-12T02:32:14;7.38;;;2.78;;
76995;SDS011;65929;49.062;10.338;2023-04-12T02:33:15;2.83;;;1.80;;
76995;SDS011;65929;49.062;10.338;2023-04-12T02:34:16;4.75;;;1.70;;
76995;SDS011;65929;49.062;10.338;2023-04-12T02:35:18;7.25;;;2.20;;
76995;SDS011;65929;49.062;10.338;2023-04-12T02:36:19;4.60;;;2.00;;
76995;SDS011;65929;49.062;10.338;2023-04-12T02:37:20;5.22;;;1.98;;
76995;SDS011;65929;49.062;10.338;2023-04-12T02:38:21;5.28;;;2.17;;
76995;SDS011;65929;49.062;10.338;2023-04-12T02:39:22;4.70;;;2.20;;
76995;SDS011;65929;49.062;10.338;2023-04-12T02:40:23;3.22;;;1.83;;
76995;SDS011;65929;49.062;10.338;2023-04-12T02:41:24;3.35;;;1.63;;
76995;SDS011;65929;49.062;10.338;2023-04-12T02:42:25;2.38;;;1.75;;
76995;SDS011;65929;49.062;10.338;2023-04-12T02:43:26;4.22;;;2.17;;
76995;SDS011;65929;49.062;10.338;2023-04-12T02:44:29;5.03;;;2.20;;
76995;SDS011;65929;49.062;10.338;2023-04-12T02:45:30;3.28;;;1.92;;
76995;SDS011;65929;49.062;10.338;2023-04-12T02:46:31;3.00;;;1.88;;
76995;SDS011;65929;49.062;10.338;2023-04-12T02:47:32;4.15;;;2.38;;
76995;SDS011;65929;49.062;10.338;2023-04-12T02:48:33;4.97;;;2.10;;
76995;SDS011;65929;49.062;10.338;2023-04-12T02:49:34;4.60;;;2.20;;
76995;SDS011;65929;49.062;10.338;2023-04-12T02:50:35;4.15;;;2.03;;
76995;SDS011;65929;49.062;10.338;2023-04-12T02:51:36;7.05;;;2.22;;
76995;SDS011;65929;49.062;10.338;2023-04-12T02:52:37;3.85;;;2.15;;
76995;SDS011;65929;49.062;10.338;2023-04-12T02:53:38;4.35;;;2.15;;
76995;SDS011;65929;49.062;10.338;2023-04-12T02:54:39;5.57;;;2.15;;
76995;SDS011;65929;49.062;10.338;2023-04-12T02:55:40;4.25;;;2.10;;
76995;SDS011;65929;49.062;10.338;2023-04-12T02:56:41;4.60;;;2.30;;
76995;SDS011;65929;49.062;10.338;2023-04-12T02:57:43;5.72;;;2.10;;
76995;SDS011;65929;49.062;10.338;2023-04-12T02:58:44;3.10;;;2.20;;
76995;SDS011;65929;49.062;10.338;2023-04-12T02:59:47;6.18;;;2.50;;
76995;SDS011;65929;49.062;10.338;2023-04-12T03:00:52;6.18;;;2.17;;
76995;SDS011;65929;49.062;10.338;2023-04-12T03:01:53;4.28;;;1.98;;
76995;SDS011;65929;49.062;10.338;2023-04-12T03:02:53;4.90;;;2.13;;
76995;SDS011;65929;49.062;10.338;2023-04-12T03:03:55;4.05;;;1.80;;
76995;SDS011;65929;49.062;10.338;2023-04-12T03:04:56;3.83;;;1.75;;
76995;SDS011;65929;49.062;10.338;2023-04-12T03:05:57;3.08;;;2.20;;
76995;SDS011;65929;49.062;10.338;2023-04-12T03:07:07;3.75;;;1.98;;
76995;SDS011;65929;49.062;10.338;2023-04-12T03:08:08;3.85;;;2.28;;
76995;SDS011;65929;49.062;10.338;2023-04-12T03:09:09;5.80;;;2.30;;
76995;SDS011;65929;49.062;10.338;2023-04-12T03:10:10;4.90;;;2.33;;
76995;SDS011;65929;49.062;10.338;2023-04-12T03:11:11;4.07;;;2.10;;
76995;SDS011;65929;49.062;10.338;2023-04-12T03:12:13;3.60;;;2.00;;
76995;SDS011;65929;49.062;10.338;2023-04-12T03:13:14;5.72;;;2.08;;
76995;SDS011;65929;49.062;10.338;2023-04-12T03:14:18;6.75;;;2.30;;
76995;SDS011;65929;49.062;10.338;2023-04-12T03:15:20;3.97;;;2.72;;
76995;SDS011;65929;49.062;10.338;2023-04-12T03:16:23;8.73;;;3.22;;
76995;SDS011;65929;49.062;10.338;2023-04-12T03:17:28;6.95;;;2.97;;
76995;SDS011;65929;49.062;10.338;2023-04-12T03:18:30;4.75;;;2.53;;
76995;SDS011;65929;49.062;10.338;2023-04-12T03:19:31;4.40;;;2.72;;
76995;SDS011;65929;49.062;10.338;2023-04-12T03:20:34;6.55;;;2.65;;
76995;SDS011;65929;49.062;10.338;2023-04-12T03:21:35;3.97;;;2.28;;
76995;SDS011;65929;49.062;10.338;2023-04-12T03:22:36;4.47;;;2.40;;
76995;SDS011;65929;49.062;10.338;2023-04-12T03:23:37;5.60;;;2.00;;
76995;SDS011;65929;49.062;10.338;2023-04-12T03:24:38;7.55;;;2.75;;
76995;SDS011;65929;49.062;10.338;2023-04-12T03:25:41;6.63;;;2.80;;
76995;SDS011;65929;49.062;10.338;2023-04-12T03:26:43;5.53;;;2.10;;
76995;SDS011;65929;49.062;10.338;2023-04-12T03:27:45;4.47;;;2.58;;
76995;SDS011;65929;49.062;10.338;2023-04-12T03:28:46;4.72;;;2.28;;
76995;SDS011;65929;49.062;10.338;2023-04-12T03:29:47;6.75;;;2.60;;
76995;SDS011;65929;49.062;10.338;2023-04-12T03:30:49;6.60;;;2.40;;
76995;SDS011;65929;49.062;10.338;2023-04-12T03:31:50;5.35;;;2.47;;
76995;SDS011;65929;49.062;10.338;2023-04-12T03:32:51;4.75;;;2.33;;
76995;SDS011;65929;49.062;10.338;2023-04-12T03:33:52;6.10;;;2.20;;
76995;SDS011;65929;49.062;10.338;2023-04-12T03:34:53;3.70;;;2.20;;
76995;SDS011;65929;49.062;10.338;2023-04-12T03:35:54;5.93;;;2.28;;
76995;SDS011;65929;49.062;10.338;2023-04-12T03:36:55;3.90;;;2.22;;
76995;SDS011;65929;49.062;10.338;2023-04-12T03:37:56;4.95;;;2.17;;
76995;SDS011;65929;49.062;10.338;2023-04-12T03:38:57;3.10;;;1.70;;
76995;SDS011;65929;49.062;10.338;2023-04-12T03:39:58;7.10;;;1.92;;
76995;SDS011;65929;49.062;10.338;2023-04-12T03:40:59;3.38;;;1.55;;
76995;SDS011;65929;49.062;10.338;2023-04-12T03:42:00;3.75;;;2.28;;
76995;SDS011;65929;49.062;10.338;2023-04-12T03:43:01;4.63;;;1.95;;
76995;SDS011;65929;49.062;10.338;2023-04-12T03:44:02;4.85;;;2.25;;
76995;SDS011;65929;49.062;10.338;2023-04-12T03:45:03;4.68;;;1.83;;
76995;SDS011;65929;49.062;10.338;2023-04-12T03:46:07;4.22;;;2.00;;
76995;SDS011;65929;49.062;10.338;2023-04-12T03:47:08;4.45;;;1.85;;
76995;SDS011;65929;49.062;10.338;2023-04-12T03:48:08;3.30;;;2.03;;
76995;SDS011;65929;49.062;10.338;2023-04-12T03:49:11;5.78;;;1.90;;
76995;SDS011;65929;49.062;10.338;2023-04-12T03:50:12;3.60;;;1.80;;
76995;SDS011;65929;49.062;10.338;2023-04-12T03:51:12;3.60;;;1.85;;
76995;SDS011;65929;49.062;10.338;2023-04-12T03:52:14;4.72;;;1.65;;
76995;SDS011;65929;49.062;10.338;2023-04-12T03:53:15;4.28;;;1.80;;
76995;SDS011;65929;49.062;10.338;2023-04-12T03:54:16;4.05;;;2.00;;
76995;SDS011;65929;49.062;10.338;2023-04-12T03:55:17;4.32;;;1.88;;
76995;SDS011;65929;49.062;10.338;2023-04-12T03:56:18;6.00;;;2.17;;
76995;SDS011;65929;49.062;10.338;2023-04-12T03:57:20;4.03;;;1.90;;
76995;SDS011;65929;49.062;10.338;2023-04-12T03:58:20;6.50;;;2.70;;
76995;SDS011;65929;49.062;10.338;2023-04-12T03:59:21;8.80;;;2.40;;
76995;SDS011;65929;49.062;10.338;2023-04-12T04:00:22;6.57;;;2.35;;
76995;SDS011;65929;49.062;10.338;2023-04-12T04:01:25;3.38;;;1.88;;
76995;SDS011;65929;49.062;10.338;2023-04-12T04:02:26;2.50;;;1.90;;
76995;SDS011;65929;49.062;10.338;2023-04-12T04:03:27;4.93;;;2.20;;
76995;SDS011;65929;49.062;10.338;2023-04-12T04:04:28;4.95;;;2.25;;
76995;SDS011;65929;49.062;10.338;2023-04-12T04:05:29;4.75;;;2.53;;
76995;SDS011;65929;49.062;10.338;2023-04-12T04:06:31;5.40;;;2.20;;
76995;SDS011;65929;49.062;10.338;2023-04-12T04:07:33;5.22;;;2.15;;
76995;SDS011;65929;49.062;10.338;2023-04-12T04:08:35;4.82;;;1.92;;
76995;SDS011;65929;49.062;10.338;2023-04-12T04:09:36;3.03;;;1.95;;
76995;SDS011;65929;49.062;10.338;2023-04-12T04:10:38;3.58;;;2.30;;
76995;SDS011;65929;49.062;10.338;2023-04-12T04:11:39;5.75;;;2.25;;
76995;SDS011;65929;49.062;10.338;2023-04-12T04:12:40;4.68;;;2.15;;
76995;SDS011;65929;49.062;10.338;2023-04-12T04:13:41;6.68;;;2.45;;
76995;SDS011;65929;49.062;10.338;2023-04-12T04:14:42;3.38;;;2.20;;
76995;SDS011;65929;49.062;10.338;2023-04-12T04:15:43;3.72;;;2.28;;
76995;SDS011;65929;49.062;10.338;2023-04-12T04:16:45;4.60;;;1.73;;
76995;SDS011;65929;49.062;10.338;2023-04-12T04:17:46;4.68;;;2.10;;
76995;SDS011;65929;49.062;10.338;2023-04-12T04:18:48;5.95;;;2.65;;
76995;SDS011;65929;49.062;10.338;2023-04-12T04:19:49;7.70;;;2.25;;
76995;SDS011;65929;49.062;10.338;2023-04-12T04:20:50;5.30;;;2.30;;
76995;SDS011;65929;49.062;10.338;2023-04-12T04:21:51;4.20;;;2.40;;
76995;SDS011;65929;49.062;10.338;2023-04-12T04:22:52;5.13;;;2.55;;
76995;SDS011;65929;49.062;10.338;2023-04-12T04:23:53;5.38;;;2.22;;
76995;SDS011;65929;49.062;10.338;2023-04-12T04:24:54;5.85;;;2.22;;
76995;SDS011;65929;49.062;10.338;2023-04-12T04:25:55;7.15;;;2.72;;
76995;SDS011;65929;49.062;10.338;2023-04-12T04:26:56;5.25;;;2.75;;
76995;SDS011;65929;49.062;10.338;2023-04-12T04:27:57;8.85;;;2.30;;
76995;SDS011;65929;49.062;10.338;2023-04-12T04:28:59;4.25;;;2.28;;
76995;SDS011;65929;49.062;10.338;2023-04-12T04:30:01;6.22;;;2.47;;
76995;SDS011;65929;49.062;10.338;2023-04-12T04:31:03;6.65;;;2.65;;
76995;SDS011;65929;49.062;10.338;2023-04-12T04:32:06;3.70;;;2.22;;
76995;SDS011;65929;49.062;10.338;2023-04-12T04:33:07;4.07;;;2.33;;
76995;SDS011;65929;49.062;10.338;2023-04-12T04:34:08;5.38;;;2.58;;
76995;SDS011;65929;49.062;10.338;2023-04-12T04:35:09;6.65;;;2.90;;
76995;SDS011;65929;49.062;10.338;2023-04-12T04:36:12;5.53;;;2.70;;
76995;SDS011;65929;49.062;10.338;2023-04-12T04:37:14;7.45;;;3.00;;
76995;SDS011;65929;49.062;10.338;2023-04-12T04:38:16;6.03;;;3.10;;
76995;SDS011;65929;49.062;10.338;2023-04-12T04:39:19;7.18;;;3.22;;
76995;SDS011;65929;49.062;10.338;2023-04-12T04:40:20;6.32;;;3.30;;
76995;SDS011;65929;49.062;10.338;2023-04-12T04:41:22;7.47;;;3.70;;
76995;SDS011;65929;49.062;10.338;2023-04-12T04:42:23;4.97;;;3.15;;
76995;SDS011;65929;49.062;10.338;2023-04-12T04:43:24;5.45;;;3.20;;
76995;SDS011;65929;49.062;10.338;2023-04-12T04:44:25;5.85;;;3.22;;
76995;SDS011;65929;49.062;10.338;2023-04-12T04:45:26;6.50;;;4.10;;
76995;SDS011;65929;49.062;10.338;2023-04-12T04:46:27;9.30;;;4.50;;
76995;SDS011;65929;49.062;10.338;2023-04-12T04:47:30;8.50;;;4.20;;
76995;SDS011;65929;49.062;10.338;2023-04-12T04:48:31;8.32;;;4.78;;
76995;SDS011;65929;49.062;10.338;2023-04-12T04:49:33;7.32;;;4.20;;
76995;SDS011;65929;49.062;10.338;2023-04-12T04:50:33;10.75;;;4.70;;
76995;SDS011;65929;49.062;10.338;2023-04-12T04:51:35;10.05;;;4.90;;
76995;SDS011;65929;49.062;10.338;2023-04-12T04:52:36;8.82;;;4.82;;
76995;SDS011;65929;49.062;10.338;2023-04-12T04:53:38;10.60;;;4.68;;
76995;SDS011;65929;49.062;10.338;2023-04-12T04:54:39;8.88;;;4.10;;
76995;SDS011;65929;49.062;10.338;2023-04-12T04:55:40;11.68;;;4.63;;
76995;SDS011;65929;49.062;10.338;2023-04-12T04:56:41;8.75;;;4.40;;
76995;SDS011;65929;49.062;10.338;2023-04-12T04:57:43;6.65;;;4.32;;
76995;SDS011;65929;49.062;10.338;2023-04-12T04:58:44;8.32;;;4.72;;
76995;SDS011;65929;49.062;10.338;2023-04-12T04:59:45;7.68;;;3.85;;
76995;SDS011;65929;49.062;10.338;2023-04-12T05:00:45;7.20;;;3.95;;
76995;SDS011;65929;49.062;10.338;2023-04-12T05:01:48;9.13;;;4.22;;
76995;SDS011;65929;49.062;10.338;2023-04-12T05:02:50;8.68;;;3.83;;
76995;SDS011;65929;49.062;10.338;2023-04-12T05:03:51;7.25;;;4.40;;
76995;SDS011;65929;49.062;10.338;2023-04-12T05:04:54;7.80;;;4.55;;
76995;SDS011;65929;49.062;10.338;2023-04-12T05:05:55;9.27;;;3.80;;
76995;SDS011;65929;49.062;10.338;2023-04-12T05:06:56;6.10;;;3.50;;
76995;SDS011;65929;49.062;10.338;2023-04-12T05:07:57;7.05;;;3.10;;
76995;SDS011;65929;49.062;10.338;2023-04-12T05:08:58;6.78;;;4.03;;
76995;SDS011;65929;49.062;10.338;2023-04-12T05:10:03;7.60;;;4.15;;
76995;SDS011;65929;49.062;10.338;2023-04-12T05:11:04;8.85;;;4.05;;
76995;SDS011;65929;49.062;10.338;2023-04-12T05:12:06;7.78;;;3.33;;
76995;SDS011;65929;49.062;10.338;2023-04-12T05:13:07;8.02;;;4.20;;
76995;SDS011;65929;49.062;10.338;2023-04-12T05:14:09;6.55;;;3.78;;
76995;SDS011;65929;49.062;10.338;2023-04-12T05:15:10;7.57;;;4.22;;
76995;SDS011;65929;49.062;10.338;2023-04-12T05:16:11;6.20;;;4.28;;
76995;SDS011;65929;49.062;10.338;2023-04-12T05:17:12;6.10;;;4.05;;
76995;SDS011;65929;49.062;10.338;2023-04-12T05:18:14;7.65;;;3.78;;
76995;SDS011;65929;49.062;10.338;2023-04-12T05:19:16;6.30;;;3.08;;
76995;SDS011;65929;49.062;10.338;2023-04-12T05:20:17;7.20;;;4.10;;
76995;SDS011;65929;49.062;10.338;2023-04-12T05:21:18;8.25;;;4.15;;
76995;SDS011;65929;49.062;10.338;2023-04-12T05:22:19;8.85;;;3.35;;
76995;SDS011;65929;49.062;10.338;2023-04-12T05:23:21;6.72;;;3.70;;
76995;SDS011;65929;49.062;10.338;2023-04-12T05:24:22;5.65;;;3.63;;
76995;SDS011;65929;49.062;10.338;2023-04-12T05:25:22;7.85;;;3.78;;
76995;SDS011;65929;49.062;10.338;2023-04-12T05:26:23;4.50;;;3.22;;
76995;SDS011;65929;49.062;10.338;2023-04-12T05:27:25;8.63;;;3.22;;
76995;SDS011;65929;49.062;10.338;2023-04-12T05:28:26;5.63;;;3.30;;
76995;SDS011;65929;49.062;10.338;2023-04-12T05:29:27;8.70;;;4.35;;
76995;SDS011;65929;49.062;10.338;2023-04-12T05:30:28;7.68;;;3.17;;
76995;SDS011;65929;49.062;10.338;2023-04-12T05:31:29;5.45;;;3.17;;
76995;SDS011;65929;49.062;10.338;2023-04-12T05:32:31;6.82;;;3.22;;
76995;SDS011;65929;49.062;10.338;2023-04-12T05:33:33;6.18;;;3.70;;
76995;SDS011;65929;49.062;10.338;2023-04-12T05:34:35;6.03;;;3.13;;
76995;SDS011;65929;49.062;10.338;2023-04-12T05:35:36;5.93;;;3.25;;
76995;SDS011;65929;49.062;10.338;2023-04-12T05:36:37;6.72;;;2.97;;
76995;SDS011;65929;49.062;10.338;2023-04-12T05:37:38;4.80;;;3.50;;
76995;SDS011;65929;49.062;10.338;2023-04-12T05:38:39;4.35;;;2.85;;
76995;SDS011;65929;49.062;10.338;2023-04-12T05:39:40;5.53;;;3.15;;
76995;SDS011;65929;49.062;10.338;2023-04-12T05:40:41;7.55;;;3.60;;
76995;SDS011;65929;49.062;10.338;2023-04-12T05:41:45;6.13;;;3.13;;
76995;SDS011;65929;49.062;10.338;2023-04-12T05:42:46;6.22;;;3.33;;
76995;SDS011;65929;49.062;10.338;2023-04-12T05:43:47;6.63;;;3.47;;
76995;SDS011;65929;49.062;10.338;2023-04-12T05:44:48;5.50;;;3.15;;
76995;SDS011;65929;49.062;10.338;2023-04-12T05:45:50;5.55;;;3.50;;
76995;SDS011;65929;49.062;10.338;2023-04-12T05:46:50;7.30;;;3.80;;
76995;SDS011;65929;49.062;10.338;2023-04-12T05:47:52;7.82;;;3.50;;
76995;SDS011;65929;49.062;10.338;2023-04-12T05:48:55;6.18;;;3.30;;
76995;SDS011;65929;49.062;10.338;2023-04-12T05:49:56;6.25;;;3.30;;
76995;SDS011;65929;49.062;10.338;2023-04-12T05:50:57;6.03;;;3.55;;
76995;SDS011;65929;49.062;10.338;2023-04-12T05:51:58;5.13;;;3.20;;
76995;SDS011;65929;49.062;10.338;2023-04-12T05:52:59;6.45;;;3.75;;
76995;SDS011;65929;49.062;10.338;2023-04-12T05:54:00;6.10;;;3.78;;
76995;SDS011;65929;49.062;10.338;2023-04-12T05:55:05;6.50;;;3.05;;
76995;SDS011;65929;49.062;10.338;2023-04-12T05:56:07;6.03;;;3.40;;
76995;SDS011;65929;49.062;10.338;2023-04-12T05:57:08;6.22;;;3.22;;
76995;SDS011;65929;49.062;10.338;2023-04-12T05:58:09;5.18;;;3.17;;
76995;SDS011;65929;49.062;10.338;2023-04-12T05:59:10;5.38;;;3.20;;
76995;SDS011;65929;49.062;10.338;2023-04-12T06:00:12;5.25;;;3.55;;
76995;SDS011;65929;49.062;10.338;2023-04-12T06:01:17;6.70;;;3.72;;
76995;SDS011;65929;49.062;10.338;2023-04-12T06:02:20;4.18;;;3.33;;
76995;SDS011;65929;49.062;10.338;2023-04-12T06:03:21;5.00;;;3.17;;
76995;SDS011;65929;49.062;10.338;2023-04-12T06:04:26;5.68;;;3.22;;
76995;SDS011;65929;49.062;10.338;2023-04-12T06:05:27;5.47;;;3.70;;
76995;SDS011;65929;49.062;10.338;2023-04-12T06:06:29;5.95;;;3.20;;
76995;SDS011;65929;49.062;10.338;2023-04-12T06:07:30;4.75;;;3.35;;
76995;SDS011;65929;49.062;10.338;2023-04-12T06:08:31;5.03;;;3.47;;
76995;SDS011;65929;49.062;10.338;2023-04-12T06:09:33;6.32;;;4.00;;
76995;SDS011;65929;49.062;10.338;2023-04-12T06:10:34;5.30;;;3.40;;
76995;SDS011;65929;49.062;10.338;2023-04-12T06:11:35;6.55;;;3.10;;